createdAt,value
2023-01-20T00:09:08.244Z,1.6
2023-01-20T00:19:09.023Z,1.7
2023-01-20T00:29:09.176Z,1.7
2023-01-20T00:39:09.761Z,1.5
2023-01-20T00:49:10.242Z,1.5
2023-01-20T00:59:10.636Z,1.5
2023-01-20T01:09:11.252Z,1.3
2023-01-20T01:19:11.802Z,1.3
2023-01-20T01:29:12.053Z,1.2
2023-01-20T01:39:13.050Z,1.2
2023-01-20T01:49:13.260Z,1.2
2023-01-20T01:59:13.861Z,1.2
2023-01-20T02:09:14.693Z,1.2
2023-01-20T02:19:15.454Z,1.2
2023-01-20T02:29:16.327Z,1.3
2023-01-20T02:39:26.826Z,1.3
2023-01-20T02:49:17.376Z,1.2
2023-01-20T02:59:18.363Z,1.2
2023-01-20T03:09:19.203Z,1.2
2023-01-20T03:19:20.574Z,1.2
2023-01-20T03:29:20.047Z,1.2
2023-01-20T03:39:20.450Z,1.2
2023-01-20T03:49:21.537Z,1.1
2023-01-20T03:59:22.331Z,1.1
2023-01-20T04:09:23.031Z,1.1
2023-01-20T04:19:23.282Z,1
2023-01-20T04:29:24.350Z,1.1
2023-01-20T04:39:25.049Z,1.1
2023-01-20T04:49:25.509Z,1.1
2023-01-20T04:59:25.675Z,1.1
2023-01-20T05:09:25.908Z,1.1
2023-01-20T05:19:26.713Z,1.1
2023-01-20T05:29:27.764Z,1
2023-01-20T05:39:28.652Z,1
2023-01-20T05:49:29.266Z,0.9
2023-01-20T05:59:30.197Z,1.1
2023-01-20T06:09:30.741Z,1.1
2023-01-20T06:19:31.300Z,1.2
2023-01-20T06:29:31.720Z,1.2
2023-01-20T06:39:32.167Z,1.3
2023-01-20T06:49:32.303Z,1.2
2023-01-20T06:59:32.704Z,1.4
2023-01-20T07:09:33.452Z,1.4
2023-01-20T07:19:34.051Z,1.4
2023-01-20T07:29:34.254Z,1.4
2023-01-20T07:39:35.158Z,1.5
2023-01-20T07:49:35.797Z,1.6
2023-01-20T07:59:36.791Z,1.6
2023-01-20T08:09:37.628Z,1.7
2023-01-20T08:19:38.452Z,1.6
2023-01-20T08:29:39.052Z,1.6
2023-01-20T08:39:39.411Z,1.7
2023-01-20T08:49:40.187Z,1.8
2023-01-20T08:59:40.766Z,1.9
2023-01-20T09:09:40.944Z,2.1
2023-01-20T09:19:41.153Z,2.1
2023-01-20T09:29:41.771Z,2.2
2023-01-20T09:39:42.082Z,2.3
2023-01-20T09:49:42.272Z,2.4
2023-01-20T09:59:42.968Z,2.4
2023-01-20T10:09:43.776Z,2.5
2023-01-20T10:19:44.036Z,2.4
2023-01-20T10:29:45.036Z,2.5
2023-01-20T10:39:45.928Z,2.6
2023-01-20T10:49:46.448Z,2.6
2023-01-20T10:59:46.796Z,2.6
2023-01-20T11:09:46.963Z,2.6
2023-01-20T11:19:47.355Z,2.7
2023-01-20T11:29:47.412Z,2.8
2023-01-20T11:39:48.461Z,3
2023-01-20T11:49:49.438Z,3
2023-01-20T11:59:49.861Z,2.9
2023-01-20T12:09:50.264Z,3
2023-01-20T12:19:50.438Z,3
2023-01-20T12:22:28.829Z,3
2023-01-20T12:39:59.679Z,3
2023-01-20T12:50:00.650Z,2.9
2023-01-20T13:00:00.769Z,3
2023-01-20T13:10:00.909Z,3.1
2023-01-20T13:20:01.563Z,3
2023-01-20T13:30:02.234Z,3
2023-01-20T13:40:02.762Z,3.1
2023-01-20T13:50:03.402Z,3
2023-01-20T14:00:03.885Z,3
2023-01-20T14:10:04.452Z,3
2023-01-20T14:20:05.044Z,3.1
2023-01-20T14:30:06.033Z,3.2
2023-01-20T14:40:06.561Z,3.2
2023-01-20T14:50:06.880Z,3.2
2023-01-20T15:00:07.815Z,3.2
2023-01-20T15:10:07.943Z,3.2
2023-01-20T15:20:08.904Z,3.1
2023-01-20T15:30:10.595Z,3
2023-01-20T15:40:09.852Z,3
2023-01-20T15:50:09.939Z,2.9
2023-01-20T16:00:10.983Z,2.9
2023-01-20T16:10:12.004Z,2.7
2023-01-20T16:20:12.178Z,2.6
2023-01-20T16:40:13.555Z,2.1
2023-01-20T16:50:14.789Z,2
2023-01-20T17:00:18.362Z,1.7
2023-01-20T17:10:16.955Z,1.6
2023-01-20T17:20:17.869Z,1.4
2023-01-20T17:30:18.781Z,1.3
2023-01-20T17:40:19.528Z,1
2023-01-20T17:50:19.572Z,0.9
2023-01-20T18:00:20.218Z,0.9
2023-01-20T18:10:21.191Z,1
2023-01-20T18:20:21.583Z,1
2023-01-20T18:30:22.469Z,1
2023-01-20T18:40:23.004Z,1
2023-01-20T18:50:23.695Z,0.9
2023-01-20T19:00:23.971Z,0.8
2023-01-20T19:10:24.176Z,0.7
2023-01-20T19:20:25.046Z,0.7
2023-01-20T19:30:25.766Z,0.5
2023-01-20T19:40:26.497Z,0.4
2023-01-20T19:50:26.740Z,0.3
2023-01-20T20:00:27.675Z,0.2
2023-01-20T20:10:28.363Z,0
2023-01-20T20:20:29.349Z,0
2023-01-20T20:30:29.622Z,-0.1
2023-01-20T20:40:29.955Z,-0.3
2023-01-20T20:50:30.790Z,-0.3
2023-01-20T21:00:31.170Z,-0.3
2023-01-20T21:10:32.173Z,-0.4
2023-01-20T21:20:32.735Z,-0.5
2023-01-20T21:30:33.042Z,-0.6
2023-01-20T21:50:33.825Z,-0.6
2023-01-20T22:00:34.666Z,-0.8
2023-01-20T22:20:35.682Z,-0.9
2023-01-20T22:30:36.026Z,-1
2023-01-20T22:40:36.334Z,-1
2023-01-20T22:50:36.448Z,-1
2023-01-20T23:00:36.671Z,-1
2023-01-20T23:10:37.038Z,-1
2023-01-20T23:20:37.549Z,-1.1
2023-01-20T23:30:37.891Z,-1.2
2023-01-20T23:40:38.485Z,-1.3
2023-01-20T23:50:39.291Z,-1.4
